MKJP/KIN METAR and TAF weather

Enter ICAO airport designator
Station Type Date Time Source
MKJP METAR 2020/07/14 07:00 UTC NOAA

MKJP 140700Z 33008KT 9999 FEW022 29/25 Q1014


Station Type Date Time Source
MKJP Decoded METAR 2020/07/14 07:00 UTC NOAA

Kingston / Norman Manley, Jamaica (MKJP) 17-56N 076-47W 14M
Jul 14, 2020 - 03:00 AM EDT / 2020.07.14 0700 UTC
Wind: from the NNW (330 degrees) at 9 MPH (8 KT):0
Visibility: greater than 7 mile(s):0
Sky conditions: mostly clear
Temperature: 84 F (29 C)
Dew Point: 77 F (25 C)
Relative Humidity: 79%
Pressure (altimeter): 29.94 in. Hg (1014 hPa)
ob: MKJP 140700Z 33008KT 9999 FEW022 29/25 Q1014
cycle: 7

Station Type Date Time Source
MKJP TAF 2020/07/14 06:15 UTC NOAA

TAF MKJP 140515Z 1406/1506 34006KT 9999 FEW022
BECMG 1414/1416 15023KT
BECMG 1503/1505 34008KT

Example: see airport list